Time;durP1;ratioP1;P1;durP2;ratioP2;P2;SDS_P1;SDS_P2;PMS_P1;PMS_P2;Temp;Humidity;BMP_temperature;BMP_pressure;BME280_temperature;BME280_humidity;BME280_pressure;Samples;Min_cycle;Max_cycle;Signal;HPM_P1;HPM_P2
2022/07/25 00:00:29;;;;;;;;;30.80;30.00;;;;;;;;5247073;28;8794;-71
2022/07/25 00:03:00;;;;;;;;;23.25;23.25;;;;;;;;5247479;28;8783;-71
2022/07/25 00:05:49;;;;;;;;;25.00;25.00;;;;;;;;5233251;28;8798;-71
2022/07/25 00:08:20;;;;;;;;;22.75;22.50;;;;;;;;5247151;28;8793;-71
2022/07/25 00:10:51;;;;;;;;;22.00;22.00;;;;;;;;5247005;28;9533;-73
2022/07/25 00:13:23;;;;;;;;;22.00;22.00;;;;;;;;5230375;28;8763;-73
2022/07/25 00:15:54;;;;;;;;;18.25;18.25;;;;;;;;5229515;28;8779;-73
2022/07/25 00:18:25;;;;;;;;;21.75;21.75;;;;;;;;5246945;28;8791;-73
2022/07/25 00:20:56;;;;;;;;;20.25;20.25;;;;;;;;5230068;28;8828;-74
2022/07/25 00:23:27;;;;;;;;;21.00;21.00;;;;;;;;5213762;28;8980;-74
2022/07/25 00:25:58;;;;;;;;;18.00;18.00;;;;;;;;5230095;28;8876;-73
2022/07/25 00:28:29;;;;;;;;;21.75;21.75;;;;;;;;5249014;28;8767;-71
2022/07/25 00:31:00;;;;;;;;;18.50;18.50;;;;;;;;5250606;28;8872;-71
2022/07/25 00:33:31;;;;;;;;;21.00;21.00;;;;;;;;5259688;28;8817;-71
2022/07/25 00:36:02;;;;;;;;;23.25;23.25;;;;;;;;5233561;28;9676;-71
2022/07/25 00:38:33;;;;;;;;;21.00;21.00;;;;;;;;5247360;28;8798;-71
2022/07/25 00:41:04;;;;;;;;;21.00;21.00;;;;;;;;5229794;28;8783;-71
2022/07/25 00:43:35;;;;;;;;;23.75;23.25;;;;;;;;5262924;28;9534;-71
2022/07/25 00:46:07;;;;;;;;;20.50;20.50;;;;;;;;5229667;28;8767;-71
2022/07/25 00:48:38;;;;;;;;;24.75;23.75;;;;;;;;5262891;28;9003;-71
2022/07/25 00:51:10;;;;;;;;;22.00;22.00;;;;;;;;5266360;28;8835;-71
2022/07/25 00:53:41;;;;;;;;;25.00;25.00;;;;;;;;5266958;28;8772;-71
2022/07/25 00:56:30;;;;;;;;;29.50;29.25;;;;;;;;5265146;28;8809;-71
2022/07/25 00:59:01;;;;;;;;;22.75;22.75;;;;;;;;5249791;28;8938;-71
2022/07/25 01:01:32;;;;;;;;;24.75;24.50;;;;;;;;5250261;28;8791;-70
2022/07/25 01:04:04;;;;;;;;;24.33;24.33;;;;;;;;5268408;28;8769;-71
2022/07/25 01:06:35;;;;;;;;;20.75;20.75;;;;;;;;5266780;28;10123;-71
2022/07/25 01:09:06;;;;;;;;;28.00;27.50;;;;;;;;5262846;28;8811;-71
2022/07/25 01:11:38;;;;;;;;;24.50;24.50;;;;;;;;5245742;28;8957;-71
2022/07/25 01:14:09;;;;;;;;;23.00;23.00;;;;;;;;5246808;28;8790;-71
2022/07/25 01:16:40;;;;;;;;;23.00;23.00;;;;;;;;5245689;28;8783;-72
2022/07/25 01:19:11;;;;;;;;;16.50;16.50;;;;;;;;5245471;28;8820;-72
2022/07/25 01:21:42;;;;;;;;;21.75;21.75;;;;;;;;5246086;28;9482;-72
2022/07/25 01:24:13;;;;;;;;;22.50;22.25;;;;;;;;5229481;28;8981;-72
2022/07/25 01:26:44;;;;;;;;;23.00;23.00;;;;;;;;5212111;28;8946;-72
2022/07/25 01:29:15;;;;;;;;;25.00;25.00;;;;;;;;5245375;28;8864;-72
2022/07/25 01:31:46;;;;;;;;;21.50;21.50;;;;;;;;5245310;28;8806;-71
2022/07/25 01:34:17;;;;;;;;;25.50;25.50;;;;;;;;5256197;28;8919;-70
2022/07/25 01:37:07;;;;;;;;;28.00;28.00;;;;;;;;5252182;28;8796;-71
2022/07/25 01:39:38;;;;;;;;;30.25;30.00;;;;;;;;5267530;28;8942;-70
2022/07/25 01:42:09;;;;;;;;;29.25;29.00;;;;;;;;5266272;28;9525;-71
2022/07/25 01:44:40;;;;;;;;;24.50;24.50;;;;;;;;5249492;28;8792;-71
2022/07/25 01:47:11;;;;;;;;;24.00;24.00;;;;;;;;5263239;28;8891;-71
2022/07/25 01:49:42;;;;;;;;;26.50;26.00;;;;;;;;5246213;28;8947;-71
2022/07/25 01:52:13;;;;;;;;;24.50;24.50;;;;;;;;5245093;28;8941;-71
2022/07/25 01:55:03;;;;;;;;;25.25;25.25;;;;;;;;5246308;28;8848;-71
2022/07/25 01:57:34;;;;;;;;;27.50;27.50;;;;;;;;5245346;28;8775;-70
2022/07/25 02:00:07;;;;;;;;;29.25;29.00;;;;;;;;5228348;28;8767;-71
2022/07/25 02:02:43;;;;;;;;;28.75;28.75;;;;;;;;5246314;28;8807;-71
2022/07/25 02:05:15;;;;;;;;;31.75;30.00;;;;;;;;5228284;28;8929;-71
2022/07/25 02:07:46;;;;;;;;;28.25;28.25;;;;;;;;5259761;28;8800;-71
2022/07/25 02:10:35;;;;;;;;;22.50;22.50;;;;;;;;5251834;28;8860;-71
2022/07/25 02:13:06;;;;;;;;;25.00;25.00;;;;;;;;5232387;28;8827;-70
2022/07/25 02:15:57;;;;;;;;;23.50;22.75;;;;;;;;5251945;28;8773;-70
2022/07/25 02:18:28;;;;;;;;;20.75;20.75;;;;;;;;5232660;28;8776;-71
2022/07/25 02:20:59;;;;;;;;;21.50;21.00;;;;;;;;5248605;28;8907;-70
2022/07/25 02:23:30;;;;;;;;;22.25;22.25;;;;;;;;5249197;28;9681;-71
2022/07/25 02:26:01;;;;;;;;;23.25;23.25;;;;;;;;5257213;28;8809;-71
2022/07/25 02:28:32;;;;;;;;;23.25;23.25;;;;;;;;5228322;28;8798;-71
2022/07/25 02:31:04;;;;;;;;;20.25;20.00;;;;;;;;5230029;28;8806;-70
2022/07/25 02:33:35;;;;;;;;;22.50;22.50;;;;;;;;5211584;28;8897;-70
2022/07/25 02:36:07;;;;;;;;;24.50;24.50;;;;;;;;5227935;28;8784;-70
2022/07/25 02:38:38;;;;;;;;;23.75;23.75;;;;;;;;5246543;28;9494;-70
2022/07/25 02:41:27;;;;;;;;;23.75;23.50;;;;;;;;5249027;28;8875;-70
2022/07/25 02:43:58;;;;;;;;;21.00;21.00;;;;;;;;5232393;28;8790;-71
2022/07/25 02:46:29;;;;;;;;;25.25;25.25;;;;;;;;5248931;28;9553;-71
2022/07/25 02:49:00;;;;;;;;;23.00;23.00;;;;;;;;5250518;28;8786;-71
2022/07/25 02:51:31;;;;;;;;;22.00;22.00;;;;;;;;5255934;28;8806;-71
2022/07/25 02:54:21;;;;;;;;;23.25;23.25;;;;;;;;5257829;28;9493;-72
2022/07/25 02:56:52;;;;;;;;;22.00;22.00;;;;;;;;5253140;28;8787;-71
2022/07/25 02:59:23;;;;;;;;;21.50;21.50;;;;;;;;5269470;28;8796;-71
2022/07/25 03:01:54;;;;;;;;;23.50;23.50;;;;;;;;5272068;28;8792;-70
2022/07/25 03:04:44;;;;;;;;;21.75;21.75;;;;;;;;5268472;28;8820;-70
2022/07/25 03:07:15;;;;;;;;;21.50;21.50;;;;;;;;5269326;28;8780;-71
2022/07/25 03:09:46;;;;;;;;;23.00;22.75;;;;;;;;5269059;28;8776;-70
2022/07/25 03:12:17;;;;;;;;;24.25;24.25;;;;;;;;5252099;28;8808;-71
2022/07/25 03:14:48;;;;;;;;;18.75;18.75;;;;;;;;5252230;28;8811;-71
2022/07/25 03:17:19;;;;;;;;;18.50;18.50;;;;;;;;5269143;28;9498;-71
2022/07/25 03:20:09;;;;;;;;;23.25;23.25;;;;;;;;5248148;28;8779;-70
2022/07/25 03:22:40;;;;;;;;;23.50;23.50;;;;;;;;5253030;28;8785;-73
2022/07/25 03:25:30;;;;;;;;;22.75;22.75;;;;;;;;5254701;28;8772;-71
2022/07/25 03:28:01;;;;;;;;;24.25;23.50;;;;;;;;5267130;28;8808;-71
2022/07/25 03:30:32;;;;;;;;;26.25;25.00;;;;;;;;5264538;28;8787;-71
2022/07/25 03:33:21;;;;;;;;;26.00;26.00;;;;;;;;5247855;28;8787;-72
2022/07/25 03:35:52;;;;;;;;;24.50;24.50;;;;;;;;5247688;28;8805;-72
2022/07/25 03:38:23;;;;;;;;;19.50;19.50;;;;;;;;5230791;28;8799;-71
2022/07/25 03:40:55;;;;;;;;;26.00;26.00;;;;;;;;5248840;28;8793;-72
2022/07/25 03:43:26;;;;;;;;;25.00;25.00;;;;;;;;5267513;28;8780;-72
2022/07/25 03:45:57;;;;;;;;;23.50;23.50;;;;;;;;5251987;28;9642;-72
2022/07/25 03:48:28;;;;;;;;;25.50;25.50;;;;;;;;5228161;28;8949;-71
2022/07/25 03:51:18;;;;;;;;;43.00;36.80;;;;;;;;5232413;28;8814;-72
2022/07/25 03:54:01;;;;;;;;;35.80;32.80;;;;;;;;5230846;28;8798;-71
2022/07/25 03:56:36;;;;;;;;;35.75;32.25;;;;;;;;5248612;28;9550;-72
2022/07/25 03:59:07;;;;;;;;;31.75;30.75;;;;;;;;5248522;28;8791;-71
2022/07/25 04:01:38;;;;;;;;;30.25;29.25;;;;;;;;5220879;28;8908;-72
2022/07/25 04:04:09;;;;;;;;;30.50;29.00;;;;;;;;5246515;28;8810;-72
2022/07/25 04:06:40;;;;;;;;;32.25;30.50;;;;;;;;5245669;28;8937;-72
2022/07/25 04:09:12;;;;;;;;;27.25;27.25;;;;;;;;5259854;28;8831;-71
2022/07/25 04:12:01;;;;;;;;;25.00;25.00;;;;;;;;5247257;28;8814;-71
2022/07/25 04:14:32;;;;;;;;;20.75;20.75;;;;;;;;5267693;28;8784;-72
2022/07/25 04:17:05;;;;;;;;;26.50;26.50;;;;;;;;5250812;28;8854;-72
2022/07/25 04:19:36;;;;;;;;;29.50;28.75;;;;;;;;5250054;28;8784;-73
2022/07/25 04:22:07;;;;;;;;;28.00;28.00;;;;;;;;5251691;28;8788;-72
2022/07/25 04:24:38;;;;;;;;;28.25;28.00;;;;;;;;5267635;28;8808;-72
2022/07/25 04:27:09;;;;;;;;;24.50;24.50;;;;;;;;5255874;28;8833;-73
2022/07/25 04:29:40;;;;;;;;;27.00;27.00;;;;;;;;5255551;28;8811;-73
2022/07/25 04:32:12;;;;;;;;;29.25;28.75;;;;;;;;5256254;28;8811;-72
2022/07/25 04:34:43;;;;;;;;;29.25;29.00;;;;;;;;5262084;28;8765;-72
2022/07/25 04:37:14;;;;;;;;;27.25;27.25;;;;;;;;5233806;28;8785;-73
2022/07/25 04:39:45;;;;;;;;;23.75;23.25;;;;;;;;5222480;28;8776;-72
2022/07/25 04:42:17;;;;;;;;;26.75;26.75;;;;;;;;5246209;28;8848;-72
2022/07/25 04:44:48;;;;;;;;;28.00;28.00;;;;;;;;5246646;28;8787;-71
2022/07/25 04:47:19;;;;;;;;;22.75;21.75;;;;;;;;5251972;28;8797;-74
2022/07/25 04:49:50;;;;;;;;;23.00;23.00;;;;;;;;5267016;28;9487;-74
2022/07/25 04:52:21;;;;;;;;;23.50;23.50;;;;;;;;5265851;28;8803;-73
2022/07/25 04:55:11;;;;;;;;;23.75;23.75;;;;;;;;5267036;28;8784;-74
2022/07/25 04:57:42;;;;;;;;;26.00;26.00;;;;;;;;5231976;28;8893;-74
2022/07/25 05:00:14;;;;;;;;;25.00;24.50;;;;;;;;5232616;28;8769;-75
2022/07/25 05:02:45;;;;;;;;;23.25;23.25;;;;;;;;5266059;28;8801;-76
2022/07/25 05:05:17;;;;;;;;;24.75;24.75;;;;;;;;5233113;28;8776;-77
2022/07/25 05:07:48;;;;;;;;;22.75;22.00;;;;;;;;5250486;28;8903;-74
2022/07/25 05:10:19;;;;;;;;;23.25;23.25;;;;;;;;5250016;28;8812;-78
2022/07/25 05:12:50;;;;;;;;;21.25;21.25;;;;;;;;5261634;28;8811;-72
2022/07/25 05:15:21;;;;;;;;;20.50;20.50;;;;;;;;5245015;28;8802;-73
2022/07/25 05:17:53;;;;;;;;;22.00;22.00;;;;;;;;5253822;28;8815;-72
2022/07/25 05:20:24;;;;;;;;;22.25;22.25;;;;;;;;5253460;28;8799;-73
2022/07/25 05:22:55;;;;;;;;;21.75;21.75;;;;;;;;5248023;28;8845;-73
2022/07/25 05:25:28;;;;;;;;;22.50;22.50;;;;;;;;5232928;28;8840;-72
2022/07/25 05:28:17;;;;;;;;;21.50;21.50;;;;;;;;5234977;28;8811;-73
2022/07/25 05:30:48;;;;;;;;;27.00;27.00;;;;;;;;5226721;28;8941;-73
2022/07/25 05:33:20;;;;;;;;;22.00;22.00;;;;;;;;5210311;28;8875;-72
2022/07/25 05:35:51;;;;;;;;;25.00;25.00;;;;;;;;5226711;28;8787;-73
2022/07/25 05:38:40;;;;;;;;;21.75;21.75;;;;;;;;5260357;28;8817;-73
2022/07/25 05:41:12;;;;;;;;;22.75;22.25;;;;;;;;5260461;28;8812;-74
2022/07/25 05:43:45;;;;;;;;;20.75;20.75;;;;;;;;5242014;28;8842;-73
2022/07/25 05:46:17;;;;;;;;;22.75;22.75;;;;;;;;5226587;28;8791;-74
2022/07/25 05:48:48;;;;;;;;;23.00;23.00;;;;;;;;5210589;28;8825;-74
2022/07/25 05:51:19;;;;;;;;;21.00;21.00;;;;;;;;5244306;28;8920;-74
2022/07/25 05:53:50;;;;;;;;;22.00;22.00;;;;;;;;5231991;28;8815;-74
2022/07/25 05:56:21;;;;;;;;;22.00;22.00;;;;;;;;5242956;28;8856;-74
2022/07/25 05:58:52;;;;;;;;;22.50;22.50;;;;;;;;5263405;28;8792;-73
2022/07/25 06:01:23;;;;;;;;;19.00;19.00;;;;;;;;5263982;28;9515;-73
2022/07/25 06:03:54;;;;;;;;;22.00;22.00;;;;;;;;5265394;28;9491;-74
2022/07/25 06:06:49;;;;;;;;;21.75;21.75;;;;;;;;5263853;28;8788;-75
2022/07/25 06:09:21;;;;;;;;;22.00;22.00;;;;;;;;5264097;28;8792;-74
2022/07/25 06:11:52;;;;;;;;;20.50;20.50;;;;;;;;5263968;28;8890;-73
2022/07/25 06:14:42;;;;;;;;;19.00;18.50;;;;;;;;5247457;28;8818;-74
2022/07/25 06:17:13;;;;;;;;;20.75;20.75;;;;;;;;5253344;28;9647;-74
2022/07/25 06:19:44;;;;;;;;;19.25;19.25;;;;;;;;5239088;28;8803;-74
2022/07/25 06:22:15;;;;;;;;;19.00;19.00;;;;;;;;5233951;28;8923;-72
2022/07/25 06:24:46;;;;;;;;;20.25;20.25;;;;;;;;5248830;28;8823;-72
2022/07/25 06:27:17;;;;;;;;;20.00;20.00;;;;;;;;5248433;28;8815;-72
2022/07/25 06:29:48;;;;;;;;;16.75;16.75;;;;;;;;5243208;28;9817;-72
2022/07/25 06:32:19;;;;;;;;;22.33;22.33;;;;;;;;5248956;28;8811;-72
2022/07/25 06:34:50;;;;;;;;;22.25;22.25;;;;;;;;5232813;28;9058;-72
2022/07/25 06:37:21;;;;;;;;;20.00;20.00;;;;;;;;5234136;28;8795;-72
2022/07/25 06:39:53;;;;;;;;;18.00;18.00;;;;;;;;5233052;28;9242;-72
2022/07/25 06:42:24;;;;;;;;;20.00;20.00;;;;;;;;5250077;28;8860;-72
2022/07/25 06:44:55;;;;;;;;;21.25;21.25;;;;;;;;5253959;28;8780;-73
2022/07/25 06:47:26;;;;;;;;;26.00;26.00;;;;;;;;5231775;28;8807;-73
2022/07/25 06:49:57;;;;;;;;;21.00;21.00;;;;;;;;5215305;28;8793;-71
2022/07/25 06:52:29;;;;;;;;;22.50;22.50;;;;;;;;5248516;28;8835;-71
2022/07/25 06:55:01;;;;;;;;;22.00;22.00;;;;;;;;5231518;28;8787;-72
2022/07/25 06:57:35;;;;;;;;;22.00;22.00;;;;;;;;5250773;28;8828;-72
2022/07/25 07:00:08;;;;;;;;;21.75;21.50;;;;;;;;5264975;28;8835;-72
2022/07/25 07:02:57;;;;;;;;;22.00;21.25;;;;;;;;5231671;28;8811;-72
2022/07/25 07:05:29;;;;;;;;;20.00;20.00;;;;;;;;5231588;28;8892;-71
2022/07/25 07:08:01;;;;;;;;;21.50;21.50;;;;;;;;5251341;28;8839;-73
2022/07/25 07:10:51;;;;;;;;;18.50;18.50;;;;;;;;5257720;28;8799;-72
2022/07/25 07:13:22;;;;;;;;;21.00;21.00;;;;;;;;5231227;28;8806;-72
2022/07/25 07:15:54;;;;;;;;;14.50;14.50;;;;;;;;5230847;28;8791;-72
2022/07/25 07:18:25;;;;;;;;;21.50;21.25;;;;;;;;5247940;28;8775;-73
2022/07/25 07:20:56;;;;;;;;;24.50;24.50;;;;;;;;5248814;28;8881;-73
2022/07/25 07:23:27;;;;;;;;;19.00;19.00;;;;;;;;5230849;28;8799;-73
2022/07/25 07:26:17;;;;;;;;;19.00;19.00;;;;;;;;5248591;28;9600;-72
2022/07/25 07:28:48;;;;;;;;;18.25;18.25;;;;;;;;5249607;28;8907;-72
2022/07/25 07:31:19;;;;;;;;;20.75;20.75;;;;;;;;5252006;28;8819;-71
2022/07/25 07:33:50;;;;;;;;;19.75;19.75;;;;;;;;5251677;28;8814;-72
2022/07/25 07:36:39;;;;;;;;;18.75;18.75;;;;;;;;5261758;28;8823;-72
2022/07/25 07:39:10;;;;;;;;;16.50;16.50;;;;;;;;5247637;28;8798;-72
2022/07/25 07:41:41;;;;;;;;;17.25;17.25;;;;;;;;5247586;28;8930;-72
2022/07/25 07:44:12;;;;;;;;;20.25;20.25;;;;;;;;5256975;28;9585;-72
2022/07/25 07:46:44;;;;;;;;;20.50;20.50;;;;;;;;5250236;28;8799;-72
2022/07/25 07:49:15;;;;;;;;;19.00;19.00;;;;;;;;5267388;28;8791;-72
2022/07/25 07:51:46;;;;;;;;;17.00;17.00;;;;;;;;5260385;28;8819;-72
2022/07/25 07:57:25;;;;;;;;;19.50;19.50;;;;;;;;5267332;28;8799;-72
2022/07/25 07:59:56;;;;;;;;;17.75;17.75;;;;;;;;5241026;28;8857;-72
2022/07/25 08:02:47;;;;;;;;;22.00;22.00;;;;;;;;5262940;28;8799;-72
2022/07/25 08:05:21;;;;;;;;;19.00;19.00;;;;;;;;5234481;28;8784;-71
2022/07/25 08:07:53;;;;;;;;;17.50;17.50;;;;;;;;5267313;28;8826;-72
2022/07/25 08:10:25;;;;;;;;;24.00;24.00;;;;;;;;5251092;28;8780;-72
2022/07/25 08:12:57;;;;;;;;;21.00;21.00;;;;;;;;5267628;28;8811;-72
2022/07/25 08:15:50;;;;;;;;;23.00;23.00;;;;;;;;5267076;28;8852;-72
2022/07/25 08:18:21;;;;;;;;;20.00;20.00;;;;;;;;5250213;28;9540;-72
2022/07/25 08:20:52;;;;;;;;;20.67;20.67;;;;;;;;5246432;28;8775;-72
2022/07/25 08:23:24;;;;;;;;;22.00;22.00;;;;;;;;5249036;28;8890;-71
2022/07/25 08:25:55;;;;;;;;;18.00;18.00;;;;;;;;5229404;28;8779;-72
2022/07/25 08:28:26;;;;;;;;;20.75;20.75;;;;;;;;5246546;28;8821;-72
2022/07/25 08:30:58;;;;;;;;;20.75;20.75;;;;;;;;5229605;28;8871;-72
2022/07/25 08:33:48;;;;;;;;;27.00;27.00;;;;;;;;5246469;28;8918;-72
2022/07/25 08:36:19;;;;;;;;;23.75;23.75;;;;;;;;5228981;28;8925;-72
2022/07/25 08:38:50;;;;;;;;;23.50;23.50;;;;;;;;5262658;28;8923;-72
2022/07/25 08:41:21;;;;;;;;;20.67;20.67;;;;;;;;5266746;28;8931;-71
2022/07/25 08:43:53;;;;;;;;;22.50;22.50;;;;;;;;5260504;28;9174;-72
2022/07/25 08:46:24;;;;;;;;;20.50;20.50;;;;;;;;5267157;28;8807;-72
2022/07/25 08:49:13;;;;;;;;;21.75;21.75;;;;;;;;5266424;28;8769;-72
2022/07/25 08:51:44;;;;;;;;;23.50;23.50;;;;;;;;5249839;28;9585;-72
2022/07/25 08:54:15;;;;;;;;;23.75;23.75;;;;;;;;5233499;28;8764;-71
2022/07/25 08:56:46;;;;;;;;;21.67;21.67;;;;;;;;5266633;28;9511;-71
2022/07/25 08:59:17;;;;;;;;;25.50;25.50;;;;;;;;5265627;28;8857;-72
2022/07/25 09:01:48;;;;;;;;;20.00;20.00;;;;;;;;5249580;28;8800;-72
2022/07/25 09:04:38;;;;;;;;;24.50;24.50;;;;;;;;5252587;28;8799;-71
2022/07/25 09:07:09;;;;;;;;;23.00;23.00;;;;;;;;5266896;28;8777;-72
2022/07/25 09:09:40;;;;;;;;;22.75;22.75;;;;;;;;5265510;28;11532;-72
2022/07/25 09:12:11;;;;;;;;;22.00;22.00;;;;;;;;5249729;28;8957;-72
2022/07/25 09:14:43;;;;;;;;;23.75;23.75;;;;;;;;5259708;28;8791;-71
2022/07/25 09:17:13;;;;;;;;;28.00;28.00;;;;;;;;5235671;28;8788;-72
2022/07/25 09:19:51;;;;;;;;;25.00;25.00;;;;;;;;5239357;28;8848;-72
2022/07/25 09:22:22;;;;;;;;;23.25;23.25;;;;;;;;5223127;28;9646;-69
2022/07/25 09:24:53;;;;;;;;;23.25;23.25;;;;;;;;5228391;28;8858;-72
2022/07/25 09:27:24;;;;;;;;;21.33;21.33;;;;;;;;5241715;28;9557;-72
2022/07/25 09:29:55;;;;;;;;;23.00;23.00;;;;;;;;5260999;28;11462;-73
2022/07/25 09:32:26;;;;;;;;;20.67;20.67;;;;;;;;5210723;28;9697;-76
2022/07/25 09:34:57;;;;;;;;;20.25;20.25;;;;;;;;5227455;28;10987;-72
2022/07/25 09:37:28;;;;;;;;;19.50;19.50;;;;;;;;5245151;28;8783;-73
2022/07/25 09:39:59;;;;;;;;;22.50;22.50;;;;;;;;5227740;28;8864;-73
2022/07/25 09:42:35;;;;;;;;;21.50;21.50;;;;;;;;5210053;28;8806;-73
2022/07/25 09:45:10;;;;;;;;;22.50;22.50;;;;;;;;5228845;28;8973;-73
2022/07/25 09:47:52;;;;;;;;;23.50;23.50;;;;;;;;5256972;28;8929;-73
2022/07/25 09:50:24;;;;;;;;;21.25;21.25;;;;;;;;5244196;28;8795;-73
2022/07/25 09:52:55;;;;;;;;;22.00;22.00;;;;;;;;5244324;28;8846;-73
2022/07/25 09:55:27;;;;;;;;;22.25;22.25;;;;;;;;5244411;28;8800;-73
2022/07/25 09:57:58;;;;;;;;;23.00;23.00;;;;;;;;5211601;28;9505;-73
2022/07/25 10:00:30;;;;;;;;;23.25;23.25;;;;;;;;5245217;28;8802;-73
2022/07/25 10:03:14;;;;;;;;;21.25;21.25;;;;;;;;5245086;28;8929;-73
2022/07/25 10:05:52;;;;;;;;;22.75;22.75;;;;;;;;5245388;28;8779;-73
2022/07/25 10:08:41;;;;;;;;;17.50;17.25;;;;;;;;5245161;28;8794;-73
2022/07/25 10:11:22;;;;;;;;;23.75;23.50;;;;;;;;5246097;28;8859;-73
2022/07/25 10:13:54;;;;;;;;;23.50;23.50;;;;;;;;5263038;28;8800;-73
2022/07/25 10:16:26;;;;;;;;;21.50;21.25;;;;;;;;5266094;28;8769;-73
2022/07/25 10:18:57;;;;;;;;;20.50;20.50;;;;;;;;5266809;28;8801;-73
2022/07/25 10:21:29;;;;;;;;;21.50;21.50;;;;;;;;5258518;28;9556;-74
2022/07/25 10:24:04;;;;;;;;;18.25;18.25;;;;;;;;5246186;28;8966;-73
2022/07/25 10:26:38;;;;;;;;;20.75;20.75;;;;;;;;5230615;28;8819;-73
2022/07/25 10:29:10;;;;;;;;;25.00;24.75;;;;;;;;5234579;28;8814;-73
2022/07/25 10:31:43;;;;;;;;;18.00;18.00;;;;;;;;5250249;28;8852;-70
2022/07/25 10:34:14;;;;;;;;;22.25;22.25;;;;;;;;5246176;28;8929;-74
2022/07/25 10:36:46;;;;;;;;;21.25;21.25;;;;;;;;5235458;28;8807;-74
2022/07/25 10:39:18;;;;;;;;;22.00;22.00;;;;;;;;5243711;28;8791;-74
2022/07/25 10:42:01;;;;;;;;;22.75;22.75;;;;;;;;5230516;28;8866;-74
2022/07/25 10:44:40;;;;;;;;;19.50;19.50;;;;;;;;5259783;28;8784;-73
2022/07/25 10:47:12;;;;;;;;;20.75;20.75;;;;;;;;5243440;28;8814;-72
2022/07/25 10:49:46;;;;;;;;;20.25;20.25;;;;;;;;5258018;28;8831;-73
2022/07/25 10:52:18;;;;;;;;;20.75;20.75;;;;;;;;5243635;28;8823;-74
2022/07/25 10:54:58;;;;;;;;;20.00;20.00;;;;;;;;5210790;28;8864;-74
2022/07/25 10:57:29;;;;;;;;;25.00;24.75;;;;;;;;5226243;28;8787;-73
2022/07/25 11:00:04;;;;;;;;;22.25;22.25;;;;;;;;5229107;28;8858;-73
2022/07/25 11:02:35;;;;;;;;;25.75;25.75;;;;;;;;5267536;28;8817;-73
2022/07/25 11:05:25;;;;;;;;;21.50;21.50;;;;;;;;5253399;28;8947;-73
2022/07/25 11:07:56;;;;;;;;;21.75;21.75;;;;;;;;5240256;28;9545;-73
2022/07/25 11:10:27;;;;;;;;;21.00;21.00;;;;;;;;5234128;28;8818;-72
2022/07/25 11:12:58;;;;;;;;;22.50;22.50;;;;;;;;5246116;28;11299;-72
2022/07/25 11:15:29;;;;;;;;;26.00;26.00;;;;;;;;5263091;28;8917;-72
2022/07/25 11:18:29;;;;;;;;;22.00;22.00;;;;;;;;5261948;28;8838;-74
2022/07/25 11:21:00;;;;;;;;;21.75;21.75;;;;;;;;5266959;28;8809;-73
2022/07/25 11:23:32;;;;;;;;;23.00;23.00;;;;;;;;5233676;28;9549;-74
2022/07/25 11:26:03;;;;;;;;;17.00;17.00;;;;;;;;5250178;28;8803;-74
2022/07/25 11:28:38;;;;;;;;;22.50;22.50;;;;;;;;5267098;28;8785;-74
2022/07/25 11:31:09;;;;;;;;;25.00;25.00;;;;;;;;5233333;28;8830;-74
2022/07/25 11:33:59;;;;;;;;;25.50;25.50;;;;;;;;5242082;28;9695;-75
2022/07/25 11:36:30;;;;;;;;;24.25;24.25;;;;;;;;5246783;28;8794;-74
2022/07/25 11:39:01;;;;;;;;;23.50;23.50;;;;;;;;5224066;28;8825;-75
2022/07/25 11:41:32;;;;;;;;;21.00;21.00;;;;;;;;5262648;28;8945;-72
2022/07/25 11:44:03;;;;;;;;;23.50;23.50;;;;;;;;5245490;28;8933;-72
2022/07/25 11:46:43;;;;;;;;;23.75;23.75;;;;;;;;5245369;28;9753;-73
2022/07/25 11:49:49;;;;;;;;;22.75;22.75;;;;;;;;5253758;28;8788;-73
2022/07/25 11:52:38;;;;;;;;;20.50;20.50;;;;;;;;5253092;28;8851;-73
2022/07/25 11:55:10;;;;;;;;;23.00;23.00;;;;;;;;5249550;28;8841;-73
2022/07/25 11:57:45;;;;;;;;;23.75;23.75;;;;;;;;5228173;28;8876;-74
2022/07/25 12:00:17;;;;;;;;;23.25;23.25;;;;;;;;5231493;28;8801;-74
2022/07/25 12:02:49;;;;;;;;;21.00;21.00;;;;;;;;5237625;28;8803;-74
2022/07/25 12:05:38;;;;;;;;;24.00;24.00;;;;;;;;5245577;28;8787;-73
2022/07/25 12:08:20;;;;;;;;;21.75;21.75;;;;;;;;5233323;28;8794;-74
2022/07/25 12:10:50;;;;;;;;;18.00;18.00;;;;;;;;5244122;28;8818;-74
2022/07/25 12:13:25;;;;;;;;;24.33;24.33;;;;;;;;5211615;28;9553;-74
2022/07/25 12:15:56;;;;;;;;;21.50;21.50;;;;;;;;5229053;28;9281;-75
2022/07/25 12:18:28;;;;;;;;;20.75;20.75;;;;;;;;5247624;28;8815;-75
2022/07/25 12:20:59;;;;;;;;;20.75;20.75;;;;;;;;5241169;28;8826;-74
2022/07/25 12:23:30;;;;;;;;;20.50;20.50;;;;;;;;5253810;28;8915;-74
2022/07/25 12:26:01;;;;;;;;;22.50;22.50;;;;;;;;5227942;28;8809;-74
2022/07/25 12:28:32;;;;;;;;;17.00;17.00;;;;;;;;5245057;28;8791;-74
2022/07/25 12:31:03;;;;;;;;;19.67;19.67;;;;;;;;5265949;28;8808;-73
2022/07/25 12:33:53;;;;;;;;;23.25;23.25;;;;;;;;5263820;28;11518;-74
2022/07/25 12:36:26;;;;;;;;;23.75;23.75;;;;;;;;5256813;28;8819;-74
2022/07/25 12:39:15;;;;;;;;;22.00;22.00;;;;;;;;5244746;28;8810;-72
2022/07/25 12:41:46;;;;;;;;;19.75;19.75;;;;;;;;5245002;28;8812;-74
2022/07/25 12:44:17;;;;;;;;;20.50;20.50;;;;;;;;5265030;28;8815;-74
2022/07/25 12:46:50;;;;;;;;;23.00;23.00;;;;;;;;5248444;28;8789;-74
2022/07/25 12:49:21;;;;;;;;;19.50;19.50;;;;;;;;5242984;28;8925;-74
2022/07/25 12:51:52;;;;;;;;;21.25;21.25;;;;;;;;5259336;28;8959;-74
2022/07/25 12:54:23;;;;;;;;;33.50;31.00;;;;;;;;5245728;28;8768;-74
2022/07/25 12:56:54;;;;;;;;;31.00;29.75;;;;;;;;5222037;28;8830;-74
2022/07/25 12:59:25;;;;;;;;;24.75;24.00;;;;;;;;5245772;28;8803;-74
2022/07/25 13:01:57;;;;;;;;;46.60;39.40;;;;;;;;5250303;28;8781;-74
2022/07/25 13:04:28;;;;;;;;;63.20;52.40;;;;;;;;5267041;28;8792;-74
2022/07/25 13:06:59;;;;;;;;;45.80;39.60;;;;;;;;5233621;28;8779;-74
2022/07/25 13:09:49;;;;;;;;;42.20;36.60;;;;;;;;5251938;28;8815;-73
2022/07/25 13:12:21;;;;;;;;;24.33;24.33;;;;;;;;5266390;28;8793;-74
2022/07/25 13:14:52;;;;;;;;;28.25;28.00;;;;;;;;5250332;28;10506;-74
2022/07/25 13:17:23;;;;;;;;;24.33;24.33;;;;;;;;5266501;28;8797;-74
2022/07/25 13:19:54;;;;;;;;;23.75;23.75;;;;;;;;5267575;28;11431;-74
2022/07/25 13:22:26;;;;;;;;;22.50;22.50;;;;;;;;5248969;28;8818;-74
2022/07/25 13:25:15;;;;;;;;;21.75;21.75;;;;;;;;5266706;28;8803;-74
2022/07/25 13:27:47;;;;;;;;;26.00;25.75;;;;;;;;5261680;28;8918;-75
2022/07/25 13:30:18;;;;;;;;;29.50;28.50;;;;;;;;5252000;28;8925;-75
2022/07/25 13:33:09;;;;;;;;;31.25;29.75;;;;;;;;5252603;28;8966;-74
2022/07/25 13:35:40;;;;;;;;;25.00;25.00;;;;;;;;5264456;28;8777;-74
2022/07/25 13:38:29;;;;;;;;;23.75;23.75;;;;;;;;5264161;28;8806;-74
2022/07/25 13:41:01;;;;;;;;;22.33;22.33;;;;;;;;5265526;28;8800;-74
2022/07/25 13:43:32;;;;;;;;;28.25;27.75;;;;;;;;5264254;28;9476;-74
2022/07/25 13:46:03;;;;;;;;;22.75;22.75;;;;;;;;5243814;28;8807;-74
2022/07/25 13:48:34;;;;;;;;;22.75;22.75;;;;;;;;5239367;28;8792;-74
2022/07/25 13:51:05;;;;;;;;;22.25;22.25;;;;;;;;5240663;28;8807;-73
2022/07/25 13:53:36;;;;;;;;;22.25;22.25;;;;;;;;5239630;28;8824;-74
2022/07/25 13:56:07;;;;;;;;;23.50;23.25;;;;;;;;5249195;28;8795;-74
2022/07/25 13:58:39;;;;;;;;;32.50;31.00;;;;;;;;5226900;28;8812;-74
2022/07/25 14:01:29;;;;;;;;;17.00;17.00;;;;;;;;5231134;28;8819;-73
2022/07/25 14:04:00;;;;;;;;;18.25;18.25;;;;;;;;5256583;28;8845;-72
2022/07/25 14:06:31;;;;;;;;;9.25;9.25;;;;;;;;5255450;28;8831;-75
2022/07/25 14:09:21;;;;;;;;;35.25;32.00;;;;;;;;5245337;28;9830;-71
2022/07/25 14:11:52;;;;;;;;;29.75;29.00;;;;;;;;5244347;28;8830;-74
2022/07/25 14:14:23;;;;;;;;;44.40;38.00;;;;;;;;5244282;28;8789;-72
2022/07/25 14:16:54;;;;;;;;;18.75;18.75;;;;;;;;5231046;28;8917;-71
2022/07/25 14:19:25;;;;;;;;;37.50;34.00;;;;;;;;5227970;28;8779;-71
2022/07/25 14:21:56;;;;;;;;;49.40;42.00;;;;;;;;5213507;28;8787;-73
2022/07/25 14:24:27;;;;;;;;;103.50;96.25;;;;;;;;5246467;28;8831;-73
2022/07/25 14:27:16;;;;;;;;;48.50;41.25;;;;;;;;5254523;28;12306;-73
2022/07/25 14:29:48;;;;;;;;;62.80;52.20;;;;;;;;5244340;28;8776;-73
2022/07/25 14:32:18;;;;;;;;;43.25;36.75;;;;;;;;5227696;28;8900;-73
2022/07/25 14:34:59;;;;;;;;;29.50;27.50;;;;;;;;5261517;28;10143;-72
2022/07/25 14:37:31;;;;;;;;;13.75;13.75;;;;;;;;5252198;28;8865;-74
2022/07/25 14:40:03;;;;;;;;;79.20;77.40;;;;;;;;5252914;28;8788;-74
2022/07/25 14:42:34;;;;;;;;;69.60;63.80;;;;;;;;5269272;28;8793;-74
2022/07/25 14:45:05;;;;;;;;;33.60;30.40;;;;;;;;5269483;28;8772;-73
2022/07/25 14:47:37;;;;;;;;;38.25;33.25;;;;;;;;5251231;28;8963;-72
2022/07/25 14:50:08;;;;;;;;;20.00;20.00;;;;;;;;5233674;28;8787;-72
2022/07/25 14:52:39;;;;;;;;;25.50;25.25;;;;;;;;5262445;28;8966;-73
2022/07/25 14:55:10;;;;;;;;;24.25;24.25;;;;;;;;5248387;28;9697;-73
2022/07/25 14:57:43;;;;;;;;;25.50;25.50;;;;;;;;5264963;28;8803;-71
2022/07/25 15:00:14;;;;;;;;;44.80;38.00;;;;;;;;5264555;28;8788;-72
2022/07/25 15:02:45;;;;;;;;;11.50;11.50;;;;;;;;5239802;28;8807;-72
2022/07/25 15:05:16;;;;;;;;;9.00;9.00;;;;;;;;5214981;28;8791;-72
2022/07/25 15:07:47;;;;;;;;;10.00;10.00;;;;;;;;5231918;28;8795;-72
2022/07/25 15:10:18;;;;;;;;;7.33;7.33;;;;;;;;5231842;28;8800;-72
2022/07/25 15:12:49;;;;;;;;;8.25;8.25;;;;;;;;5243895;28;8989;-71